createdAt,value
2022-11-24T00:01:08.087Z,7.29
2022-11-24T00:03:34.787Z,7.30
2022-11-24T00:06:10.931Z,7.32
2022-11-24T00:08:39.335Z,7.35
2022-11-24T00:11:12.265Z,7.38
2022-11-24T00:13:39.409Z,7.38
2022-11-24T00:16:35.698Z,7.38
2022-11-24T00:19:04.935Z,7.38
2022-11-24T00:21:32.499Z,7.37
2022-11-24T00:23:59.636Z,7.39
2022-11-24T00:26:31.929Z,7.35
2022-11-24T00:29:01.269Z,7.33
2022-11-24T00:31:29.237Z,7.30
2022-11-24T00:33:58.687Z,7.28
2022-11-24T00:36:27.568Z,7.25
2022-11-24T00:38:55.895Z,7.23
2022-11-24T00:41:23.990Z,7.24
2022-11-24T00:43:50.935Z,7.26
2022-11-24T00:46:17.669Z,7.27
2022-11-24T00:48:44.261Z,7.26
2022-11-24T00:51:12.932Z,7.22
2022-11-24T00:53:39.899Z,7.20
2022-11-24T00:56:07.170Z,7.15
2022-11-24T00:58:34.576Z,7.13
2022-11-24T01:01:05.170Z,7.11
2022-11-24T01:03:32.308Z,7.08
2022-11-24T01:06:19.382Z,7.06
2022-11-24T01:08:46.260Z,7.04
2022-11-24T01:11:54.584Z,7.00
2022-11-24T01:14:23.468Z,6.98
2022-11-24T01:16:50.379Z,6.96
2022-11-24T01:19:17.011Z,6.94
2022-11-24T01:21:43.519Z,6.91
2022-11-24T01:24:11.269Z,6.88
2022-11-24T01:26:37.911Z,6.89
2022-11-24T01:29:04.522Z,6.86
2022-11-24T01:31:32.758Z,6.82
2022-11-24T01:33:59.425Z,6.81
2022-11-24T01:36:26.084Z,6.79
2022-11-24T01:38:52.724Z,6.79
2022-11-24T01:41:25.290Z,6.78
2022-11-24T01:43:54.144Z,6.76
2022-11-24T01:46:23.740Z,6.76
2022-11-24T01:49:01.932Z,6.76
2022-11-24T01:51:31.966Z,6.78
2022-11-24T01:54:29.508Z,6.83
2022-11-24T01:57:01.153Z,6.87
2022-11-24T01:59:28.341Z,6.91
2022-11-24T02:01:56.787Z,6.95
2022-11-24T02:04:29.849Z,6.99
2022-11-24T02:07:00.001Z,7.04
2022-11-24T02:09:34.981Z,7.09
2022-11-24T02:12:02.545Z,7.17
2022-11-24T02:14:29.173Z,7.21
2022-11-24T02:16:55.851Z,7.27
2022-11-24T02:19:35.722Z,7.33
2022-11-24T02:22:04.226Z,7.39
2022-11-24T02:24:41.321Z,7.41
2022-11-24T02:27:10.187Z,7.44
2022-11-24T02:29:37.477Z,7.49
2022-11-24T02:32:07.420Z,7.52
2022-11-24T02:34:34.447Z,7.54
2022-11-24T02:37:01.373Z,7.56
2022-11-24T02:39:27.997Z,7.56
2022-11-24T02:41:59.229Z,7.58
2022-11-24T02:44:30.671Z,7.60
2022-11-24T02:47:09.077Z,7.60
2022-11-24T02:49:36.415Z,7.59
2022-11-24T02:52:03.760Z,7.60
2022-11-24T02:54:30.381Z,7.57
2022-11-24T02:56:57.145Z,7.56
2022-11-24T02:59:24.020Z,7.56
2022-11-24T03:01:53.741Z,7.61
2022-11-24T03:04:20.309Z,7.65
2022-11-24T03:06:46.996Z,7.67
2022-11-24T03:09:13.594Z,7.69
2022-11-24T03:11:40.239Z,7.70
2022-11-24T03:14:07.164Z,7.70
2022-11-24T03:16:33.845Z,7.71
2022-11-24T03:19:00.897Z,7.70
2022-11-24T03:21:27.497Z,7.72
2022-11-24T03:23:54.337Z,7.72
2022-11-24T03:26:26.994Z,7.74
2022-11-24T03:28:55.842Z,7.76
2022-11-24T03:31:23.409Z,7.76
2022-11-24T03:33:50.157Z,7.79
2022-11-24T03:36:16.912Z,7.79
2022-11-24T03:38:43.933Z,7.78
2022-11-24T03:41:11.098Z,7.78
2022-11-24T03:43:43.256Z,7.74
2022-11-24T03:46:10.974Z,7.73
2022-11-24T03:48:37.683Z,7.74
2022-11-24T03:51:04.533Z,7.72
2022-11-24T03:53:33.636Z,7.73
2022-11-24T03:56:02.008Z,7.76
2022-11-24T03:58:29.317Z,7.75
2022-11-24T04:00:56.360Z,7.74
2022-11-24T04:03:23.711Z,7.73
2022-11-24T04:05:50.329Z,7.73
2022-11-24T04:08:18.310Z,7.74
2022-11-24T04:10:44.977Z,7.75
2022-11-24T04:13:15.307Z,7.75
2022-11-24T04:15:43.190Z,7.77
2022-11-24T04:18:11.228Z,7.78
2022-11-24T04:20:38.469Z,7.77
2022-11-24T04:23:05.230Z,7.76
2022-11-24T04:25:32.420Z,7.73
2022-11-24T04:27:59.136Z,7.73
2022-11-24T04:30:27.617Z,7.73
2022-11-24T04:32:54.233Z,7.73
2022-11-24T04:35:21.508Z,7.71
2022-11-24T04:37:48.093Z,7.72
2022-11-24T04:40:14.961Z,7.74
2022-11-24T04:42:41.526Z,7.75
2022-11-24T04:45:08.586Z,7.74
2022-11-24T04:47:35.344Z,7.74
2022-11-24T04:50:01.858Z,7.74
2022-11-24T04:52:30.308Z,7.75
2022-11-24T04:54:56.866Z,7.76
2022-11-24T04:57:26.037Z,7.72
2022-11-24T04:59:53.692Z,7.74
2022-11-24T05:02:21.331Z,7.74
2022-11-24T05:04:48.186Z,7.73
2022-11-24T05:07:18.710Z,7.71
2022-11-24T05:10:04.440Z,7.70
2022-11-24T05:12:31.520Z,7.70
2022-11-24T05:14:59.441Z,7.71
2022-11-24T05:17:34.452Z,7.70
2022-11-24T05:20:01.060Z,7.68
2022-11-24T05:22:29.785Z,7.66
2022-11-24T05:24:56.263Z,7.61
2022-11-24T05:27:23.559Z,7.59
2022-11-24T05:29:50.091Z,7.57
2022-11-24T05:32:17.671Z,7.52
2022-11-24T05:34:44.228Z,7.48
2022-11-24T05:37:13.400Z,7.46
2022-11-24T05:39:39.911Z,7.41
2022-11-24T05:42:26.533Z,7.39
2022-11-24T05:44:53.983Z,7.33
2022-11-24T05:47:21.536Z,7.30
2022-11-24T05:49:48.244Z,7.28
2022-11-24T05:52:15.902Z,7.25
2022-11-24T05:54:42.530Z,7.23
2022-11-24T05:57:09.036Z,7.22
2022-11-24T05:59:35.681Z,7.20
2022-11-24T06:02:02.428Z,7.17
2022-11-24T06:04:29.026Z,7.17
2022-11-24T06:06:55.667Z,7.15
2022-11-24T06:09:22.262Z,7.13
2022-11-24T06:11:49.042Z,7.12
2022-11-24T06:14:15.598Z,7.11
2022-11-24T06:16:42.508Z,7.11
2022-11-24T06:19:10.529Z,7.09
2022-11-24T06:21:37.284Z,7.09
2022-11-24T06:24:04.829Z,7.09
2022-11-24T06:26:31.818Z,7.09
2022-11-24T06:28:58.322Z,7.09
2022-11-24T06:31:25.050Z,7.10
2022-11-24T06:33:51.660Z,7.10
2022-11-24T06:36:18.208Z,7.09
2022-11-24T06:38:44.771Z,7.07
2022-11-24T06:41:14.053Z,7.06
2022-11-24T06:43:41.065Z,7.05
2022-11-24T06:46:08.065Z,7.04
2022-11-24T06:48:34.930Z,7.01
2022-11-24T06:51:03.660Z,6.98
2022-11-24T06:53:38.657Z,6.95
2022-11-24T06:56:10.710Z,6.93
2022-11-24T06:58:42.511Z,6.90
2022-11-24T07:01:09.604Z,6.88
2022-11-24T07:03:36.333Z,6.87
2022-11-24T07:06:02.995Z,6.84
2022-11-24T07:08:29.653Z,6.84
2022-11-24T07:10:56.177Z,6.83
2022-11-24T07:13:22.713Z,6.83
2022-11-24T07:15:49.251Z,6.84
2022-11-24T07:18:15.774Z,6.87
2022-11-24T07:20:42.323Z,6.86
2022-11-24T07:23:09.257Z,6.88
2022-11-24T07:25:35.810Z,6.90
2022-11-24T07:28:02.416Z,6.91
2022-11-24T07:30:29.020Z,6.93
2022-11-24T07:33:01.424Z,6.93
2022-11-24T07:35:31.062Z,6.92
2022-11-24T07:37:58.537Z,6.93
2022-11-24T07:40:26.890Z,6.93
2022-11-24T07:42:54.299Z,6.94
2022-11-24T07:45:21.330Z,6.95
2022-11-24T07:47:48.117Z,6.97
2022-11-24T07:50:15.000Z,6.99
2022-11-24T07:52:41.545Z,7.00
2022-11-24T07:55:08.631Z,7.02
2022-11-24T07:57:35.428Z,7.04
2022-11-24T08:00:05.792Z,7.05
2022-11-24T08:02:33.757Z,7.06
2022-11-24T08:05:00.324Z,7.06
2022-11-24T08:07:27.191Z,7.09
2022-11-24T08:09:53.882Z,7.11
2022-11-24T08:12:23.259Z,7.13
2022-11-24T08:14:50.784Z,7.15
2022-11-24T08:17:18.296Z,7.18
2022-11-24T08:19:44.992Z,7.22
2022-11-24T08:22:11.557Z,7.25
2022-11-24T08:24:38.441Z,7.26
2022-11-24T08:27:05.289Z,7.29
2022-11-24T08:29:32.000Z,7.31
2022-11-24T08:31:58.738Z,7.33
2022-11-24T08:34:28.032Z,7.33
2022-11-24T08:36:54.702Z,7.31
2022-11-24T08:39:21.353Z,7.33
2022-11-24T08:41:48.019Z,7.37
2022-11-24T08:44:16.032Z,7.39
2022-11-24T08:46:42.770Z,7.42
2022-11-24T08:49:09.903Z,7.44
2022-11-24T08:51:36.930Z,7.42
2022-11-24T08:54:03.872Z,7.41
2022-11-24T08:56:32.217Z,7.38
2022-11-24T08:58:59.455Z,7.37
2022-11-24T09:01:27.352Z,7.33
2022-11-24T09:03:54.149Z,7.31
2022-11-24T09:06:23.859Z,7.29
2022-11-24T09:08:51.735Z,7.30
2022-11-24T09:11:19.058Z,7.32
2022-11-24T09:13:46.056Z,7.33
2022-11-24T09:16:16.045Z,7.45
2022-11-24T09:18:43.049Z,7.52
2022-11-24T09:21:17.633Z,7.59
2022-11-24T09:23:45.629Z,7.69
2022-11-24T09:26:18.605Z,7.77
2022-11-24T09:28:46.008Z,7.88
2022-11-24T09:31:14.944Z,7.95
2022-11-24T09:33:41.622Z,8.04
2022-11-24T09:36:08.844Z,8.12
2022-11-24T09:38:35.545Z,8.23
2022-11-24T09:41:35.699Z,8.32
2022-11-24T09:44:16.339Z,8.40
2022-11-24T09:47:14.875Z,8.48
2022-11-24T09:50:04.545Z,8.58
2022-11-24T09:53:03.860Z,8.66
2022-11-24T09:55:52.323Z,8.72
2022-11-24T09:58:37.001Z,8.80
2022-11-24T10:01:19.125Z,8.87
2022-11-24T10:03:49.593Z,8.88
2022-11-24T10:06:19.521Z,8.94
2022-11-24T10:09:09.255Z,9.07
2022-11-24T10:11:46.816Z,9.13
2022-11-24T10:14:30.159Z,9.23
2022-11-24T10:17:35.231Z,9.32
2022-11-24T10:20:16.744Z,9.38
2022-11-24T10:22:43.140Z,9.25
2022-11-24T10:25:15.549Z,9.10
2022-11-24T10:27:46.718Z,9.01
2022-11-24T10:30:26.293Z,9.06
2022-11-24T10:33:04.002Z,9.10
2022-11-24T10:35:38.347Z,9.12
2022-11-24T10:38:32.059Z,9.21
2022-11-24T10:41:20.263Z,9.33
2022-11-24T10:43:46.791Z,9.47
2022-11-24T10:46:26.132Z,9.55
2022-11-24T10:49:05.169Z,9.62
2022-11-24T10:51:51.243Z,9.69
2022-11-24T10:54:22.807Z,9.75
2022-11-24T10:56:54.740Z,9.81
2022-11-24T10:59:25.690Z,9.86
2022-11-24T11:01:56.049Z,9.91
2022-11-24T11:04:29.461Z,10.00
2022-11-24T11:07:19.693Z,10.05
2022-11-24T11:09:47.743Z,9.99
2022-11-24T11:12:45.698Z,9.88
2022-11-24T11:15:32.594Z,9.73
2022-11-24T11:18:01.284Z,9.76
2022-11-24T11:20:31.581Z,9.87
2022-11-24T11:23:01.823Z,9.89
2022-11-24T11:25:33.181Z,9.99
2022-11-24T11:28:18.782Z,10.09
2022-11-24T11:31:17.204Z,10.11
2022-11-24T11:34:09.512Z,10.13
2022-11-24T11:36:47.648Z,10.16
2022-11-24T11:39:25.457Z,10.19
2022-11-24T11:42:01.231Z,10.26
2022-11-24T11:44:37.320Z,10.32
2022-11-24T11:47:15.755Z,10.36
2022-11-24T11:49:42.411Z,10.36
2022-11-24T11:52:24.137Z,10.39
2022-11-24T11:55:20.333Z,10.42
2022-11-24T11:58:05.594Z,10.52
2022-11-24T12:00:38.291Z,10.63
2022-11-24T12:03:34.153Z,10.71
2022-11-24T12:06:25.094Z,10.76
2022-11-24T12:09:22.492Z,10.82
2022-11-24T12:12:01.246Z,10.92
2022-11-24T12:14:30.728Z,10.94
2022-11-24T12:17:32.557Z,10.92
2022-11-24T12:20:41.332Z,10.94
2022-11-24T12:23:41.824Z,10.99
2022-11-24T12:26:30.180Z,11.08
2022-11-24T12:29:02.486Z,11.07
2022-11-24T12:31:58.262Z,11.05
2022-11-24T12:34:39.964Z,11.07
2022-11-24T12:37:22.903Z,11.11
2022-11-24T12:40:12.858Z,11.18
2022-11-24T12:42:48.520Z,11.21
2022-11-24T12:45:18.071Z,11.16
2022-11-24T12:48:04.575Z,11.14
2022-11-24T12:50:37.350Z,11.09
2022-11-24T12:53:12.725Z,10.96
2022-11-24T12:55:40.932Z,10.89
2022-11-24T12:58:12.355Z,10.80
2022-11-24T13:01:23.553Z,10.79
2022-11-24T13:04:02.132Z,10.89
2022-11-24T13:06:47.485Z,10.97
2022-11-24T13:09:15.855Z,10.90
2022-11-24T13:11:45.641Z,10.90
2022-11-24T13:14:16.014Z,10.93
2022-11-24T13:17:28.197Z,10.95
2022-11-24T13:19:39.151Z,10.92
2022-11-24T13:22:08.432Z,10.88
2022-11-24T13:24:39.959Z,10.80
2022-11-24T13:29:56.365Z,10.68
2022-11-24T13:32:22.901Z,10.65
2022-11-24T13:34:55.448Z,10.59
2022-11-24T13:37:31.151Z,10.53
2022-11-24T13:40:14.394Z,10.48
2022-11-24T13:42:56.494Z,10.44
2022-11-24T13:45:49.743Z,10.44
2022-11-24T13:48:19.566Z,10.42
2022-11-24T13:50:58.564Z,10.40
2022-11-24T13:53:40.354Z,10.38
2022-11-24T13:56:12.929Z,10.39
2022-11-24T13:58:55.941Z,10.34
2022-11-24T14:01:33.110Z,10.32
2022-11-24T14:04:42.891Z,10.31
2022-11-24T14:07:08.406Z,10.28
2022-11-24T14:09:44.867Z,10.25
2022-11-24T14:12:17.701Z,10.23
2022-11-24T14:14:46.093Z,10.22
2022-11-24T14:17:22.802Z,10.20
2022-11-24T14:19:52.135Z,10.18
2022-11-24T14:22:34.301Z,10.14
2022-11-24T14:25:02.245Z,10.11
2022-11-24T14:27:37.877Z,10.07
2022-11-24T14:30:17.017Z,10.04
2022-11-24T14:32:58.036Z,9.99
2022-11-24T14:35:26.298Z,9.94
2022-11-24T14:37:53.409Z,9.89
2022-11-24T14:40:43.879Z,9.85
2022-11-24T14:43:24.271Z,9.79
2022-11-24T14:46:02.578Z,9.73
2022-11-24T14:48:33.510Z,9.67
2022-11-24T14:51:24.068Z,9.60
2022-11-24T14:53:57.287Z,9.54
2022-11-24T14:56:36.917Z,9.50
2022-11-24T14:59:18.421Z,9.43
2022-11-24T15:01:45.141Z,9.39
2022-11-24T15:04:22.066Z,9.36
2022-11-24T15:07:04.264Z,9.30
2022-11-24T15:09:49.614Z,9.24
2022-11-24T15:12:28.687Z,9.19
2022-11-24T15:15:00.507Z,9.12
2022-11-24T15:17:29.265Z,9.06
2022-11-24T15:20:01.059Z,9.01
2022-11-24T15:22:39.821Z,8.97
2022-11-24T15:25:33.635Z,8.91
2022-11-24T15:28:00.874Z,8.89
2022-11-24T15:30:28.657Z,8.83
2022-11-24T15:32:57.506Z,8.80
2022-11-24T15:35:26.035Z,8.77
2022-11-24T15:37:53.075Z,8.73
2022-11-24T15:40:19.742Z,8.69
2022-11-24T15:42:51.536Z,8.61
2022-11-24T15:45:19.359Z,8.54
2022-11-24T15:47:49.086Z,8.48
2022-11-24T15:50:16.429Z,8.43
2022-11-24T15:52:44.180Z,8.38
2022-11-24T15:55:22.420Z,8.31
2022-11-24T15:57:49.587Z,8.28
2022-11-24T16:00:21.972Z,8.25
2022-11-24T16:02:49.418Z,8.18
2022-11-24T16:05:17.687Z,8.13
2022-11-24T16:07:44.785Z,8.10
2022-11-24T16:10:37.808Z,8.08
2022-11-24T16:13:04.371Z,8.05
2022-11-24T16:15:30.955Z,8.02
2022-11-24T16:17:57.865Z,8.00
2022-11-24T16:20:24.455Z,7.97
2022-11-24T16:22:51.341Z,7.96
2022-11-24T16:25:18.037Z,7.95
2022-11-24T16:27:44.695Z,7.92
2022-11-24T16:30:12.905Z,7.91
2022-11-24T16:32:39.517Z,7.88
2022-11-24T16:35:06.288Z,7.89
2022-11-24T16:37:33.044Z,7.89
2022-11-24T16:40:01.675Z,7.89
2022-11-24T16:42:31.275Z,7.89
2022-11-24T16:44:57.832Z,7.87
2022-11-24T16:47:24.704Z,7.83
2022-11-24T16:49:51.237Z,7.80
2022-11-24T16:52:18.595Z,7.79
2022-11-24T16:54:46.557Z,7.78
2022-11-24T16:57:15.110Z,7.79
2022-11-24T16:59:43.400Z,7.77
2022-11-24T17:02:12.378Z,7.77
2022-11-24T17:04:38.994Z,7.75
2022-11-24T17:07:05.843Z,7.73
2022-11-24T17:09:38.871Z,7.72
2022-11-24T17:12:07.115Z,7.68
2022-11-24T17:14:33.933Z,7.67
2022-11-24T17:17:00.873Z,7.67
2022-11-24T17:19:29.568Z,7.65
2022-11-24T17:21:56.218Z,7.67
2022-11-24T17:24:22.766Z,7.67
2022-11-24T17:26:51.379Z,7.71
2022-11-24T17:29:18.939Z,7.77
2022-11-24T17:31:46.107Z,7.79
2022-11-24T17:34:13.277Z,7.78
2022-11-24T17:36:41.488Z,7.78
2022-11-24T17:39:08.147Z,7.79
2022-11-24T17:41:34.945Z,7.78
2022-11-24T17:44:01.505Z,7.76
2022-11-24T17:46:29.843Z,7.74
2022-11-24T17:48:59.597Z,7.70
2022-11-24T17:51:26.877Z,7.68
2022-11-24T17:53:55.009Z,7.66
2022-11-24T17:56:27.136Z,7.63
2022-11-24T17:58:59.058Z,7.63
2022-11-24T18:01:28.591Z,7.61
2022-11-24T18:03:55.558Z,7.63
2022-11-24T18:06:25.627Z,7.63
2022-11-24T18:08:54.271Z,7.64
2022-11-24T18:11:30.617Z,7.65
2022-11-24T18:14:02.937Z,7.68
2022-11-24T18:16:33.553Z,7.73
2022-11-24T18:19:11.319Z,7.75
2022-11-24T18:21:40.434Z,7.77
2022-11-24T18:24:11.968Z,7.77
2022-11-24T18:26:42.169Z,7.77
2022-11-24T18:29:10.111Z,7.76
2022-11-24T18:31:37.453Z,7.75
2022-11-24T18:34:05.994Z,7.73
2022-11-24T18:36:33.571Z,7.73
2022-11-24T18:39:02.213Z,7.72
2022-11-24T18:41:28.837Z,7.73
2022-11-24T18:43:55.481Z,7.71
2022-11-24T18:46:22.304Z,7.70
2022-11-24T18:48:51.463Z,7.69
2022-11-24T18:51:18.706Z,7.68
2022-11-24T18:53:49.530Z,7.66
2022-11-24T18:56:21.659Z,7.62
2022-11-24T18:58:48.247Z,7.61
2022-11-24T19:01:20.063Z,7.59
2022-11-24T19:03:49.558Z,7.59
2022-11-24T19:06:36.972Z,7.58
2022-11-24T19:09:11.654Z,7.57
2022-11-24T19:11:40.143Z,7.55
2022-11-24T19:14:09.004Z,7.53
2022-11-24T19:16:35.760Z,7.53
2022-11-24T19:19:03.171Z,7.49
2022-11-24T19:21:40.287Z,7.50
2022-11-24T19:24:10.208Z,7.49
2022-11-24T19:26:38.077Z,7.46
2022-11-24T19:29:06.069Z,7.44
2022-11-24T19:31:33.466Z,7.42
2022-11-24T19:34:00.251Z,7.42
2022-11-24T19:36:29.157Z,7.43
2022-11-24T19:38:57.317Z,7.44
2022-11-24T19:41:26.725Z,7.43
2022-11-24T19:43:53.650Z,7.41
2022-11-24T19:46:21.601Z,7.40
2022-11-24T19:48:50.591Z,7.35
2022-11-24T19:51:25.704Z,7.36
2022-11-24T19:53:55.373Z,7.36
2022-11-24T19:56:27.679Z,7.32
2022-11-24T19:58:55.423Z,7.31
2022-11-24T20:01:24.750Z,7.31
2022-11-24T20:04:00.375Z,7.30
2022-11-24T20:06:29.141Z,7.29
2022-11-24T20:08:57.684Z,7.27
2022-11-24T20:11:24.446Z,7.25
2022-11-24T20:13:51.829Z,7.23
2022-11-24T20:16:26.143Z,7.22
2022-11-24T20:18:55.112Z,7.22
2022-11-24T20:21:24.809Z,7.24
2022-11-24T20:23:59.377Z,7.23
2022-11-24T20:26:28.389Z,7.22
2022-11-24T20:28:56.765Z,7.23
2022-11-24T20:31:30.067Z,7.20
2022-11-24T20:33:57.625Z,7.17
2022-11-24T20:36:26.616Z,7.19
2022-11-24T20:38:54.257Z,7.21
2022-11-24T20:41:26.733Z,7.22
2022-11-24T20:43:55.623Z,7.23
2022-11-24T20:46:29.035Z,7.26
2022-11-24T20:48:56.439Z,7.27
2022-11-24T20:51:25.757Z,7.27
2022-11-24T20:53:55.249Z,7.30
2022-11-24T20:56:26.572Z,7.34
2022-11-24T20:58:56.471Z,7.39
2022-11-24T21:01:29.570Z,7.44
2022-11-24T21:03:59.612Z,7.45
2022-11-24T21:06:28.237Z,7.47
2022-11-24T21:09:00.480Z,7.47
2022-11-24T21:11:33.320Z,7.51
2022-11-24T21:14:01.498Z,7.53
2022-11-24T21:16:30.884Z,7.53
2022-11-24T21:19:03.758Z,7.55
2022-11-24T21:21:35.837Z,7.58
2022-11-24T21:24:06.082Z,7.62
2022-11-24T21:26:39.455Z,7.63
2022-11-24T21:29:06.949Z,7.62
2022-11-24T21:31:38.521Z,7.61
2022-11-24T21:34:06.486Z,7.64
2022-11-24T21:36:35.071Z,7.64
2022-11-24T21:39:03.188Z,7.63
2022-11-24T21:41:33.010Z,7.64
2022-11-24T21:43:59.665Z,7.66
2022-11-24T21:46:26.224Z,7.63
2022-11-24T21:48:52.822Z,7.63
2022-11-24T21:51:21.084Z,7.61
2022-11-24T21:53:50.766Z,7.59
2022-11-24T21:56:20.045Z,7.59
2022-11-24T21:58:52.197Z,7.59
2022-11-24T22:01:20.490Z,7.61
2022-11-24T22:03:47.623Z,7.62
2022-11-24T22:06:16.704Z,7.62
2022-11-24T22:08:43.546Z,7.61
2022-11-24T22:11:13.819Z,7.62
2022-11-24T22:13:42.310Z,7.62
2022-11-24T22:16:14.768Z,7.64
2022-11-24T22:18:43.480Z,7.65
2022-11-24T22:21:16.385Z,7.66
2022-11-24T22:23:43.637Z,7.67
2022-11-24T22:26:17.680Z,7.68
2022-11-24T22:28:45.310Z,7.66
2022-11-24T22:31:20.863Z,7.65
2022-11-24T22:33:48.436Z,7.66
2022-11-24T22:36:16.543Z,7.67
2022-11-24T22:38:43.625Z,7.70
2022-11-24T22:41:15.553Z,7.71
2022-11-24T22:43:43.318Z,7.71
2022-11-24T22:46:17.986Z,7.72
2022-11-24T22:48:45.866Z,7.70
2022-11-24T22:51:33.113Z,7.71
2022-11-24T22:54:03.367Z,7.70
2022-11-24T22:56:33.342Z,7.71
2022-11-24T22:59:01.240Z,7.72
2022-11-24T23:01:28.985Z,7.73
2022-11-24T23:03:55.682Z,7.74
2022-11-24T23:06:30.596Z,7.75
2022-11-24T23:08:58.685Z,7.74
2022-11-24T23:11:34.942Z,7.73
2022-11-24T23:14:03.819Z,7.74
2022-11-24T23:16:30.752Z,7.73
2022-11-24T23:18:57.993Z,7.72
2022-11-24T23:21:29.680Z,7.72
2022-11-24T23:23:58.168Z,7.74
2022-11-24T23:26:27.952Z,7.75
2022-11-24T23:28:54.478Z,7.74
2022-11-24T23:31:24.398Z,7.72
2022-11-24T23:33:51.075Z,7.73
2022-11-24T23:36:19.167Z,7.73
2022-11-24T23:38:46.746Z,7.74
2022-11-24T23:41:16.901Z,7.74
2022-11-24T23:43:44.051Z,7.76
2022-11-24T23:46:16.319Z,7.76
2022-11-24T23:48:43.947Z,7.75
2022-11-24T23:51:12.357Z,7.73
2022-11-24T23:53:39.238Z,7.72
2022-11-24T23:56:06.352Z,7.70
2022-11-24T23:58:36.483Z,7.69
